Time;durP1;ratioP1;P1;durP2;ratioP2;P2;SDS_P1;SDS_P2;PMS_P1;PMS_P2;Temp;Humidity;BMP_temperature;BMP_pressure;BME280_temperature;BME280_humidity;BME280_pressure;Samples;Min_cycle;Max_cycle;Signal;HPM_P1;HPM_P2
2021/09/26 00:02:19;;;;;;;5.20;4.70;;;17.80;99.90;;;;;;4974649;28;20214;-70
2021/09/26 00:04:44;;;;;;;4.67;4.27;;;17.80;99.90;;;;;;4974421;28;20416;-70
2021/09/26 00:07:10;;;;;;;4.97;4.50;;;17.90;99.90;;;;;;4974196;28;20537;-70
2021/09/26 00:09:36;;;;;;;5.47;4.97;;;17.80;99.90;;;;;;4974610;28;20204;-70
2021/09/26 00:12:01;;;;;;;5.43;4.53;;;17.90;99.90;;;;;;4993258;28;20205;-69
2021/09/26 00:14:27;;;;;;;4.40;4.10;;;17.90;99.90;;;;;;4980348;28;20173;-70
2021/09/26 00:16:57;;;;;;;6.80;4.30;;;17.90;99.90;;;;;;4986766;28;20679;-69
2021/09/26 00:19:24;;;;;;;5.50;4.07;;;17.80;99.90;;;;;;4994065;28;20227;-70
2021/09/26 00:21:49;;;;;;;5.03;4.53;;;17.80;99.90;;;;;;4987942;28;20429;-69
2021/09/26 00:24:17;;;;;;;8.30;4.77;;;17.90;99.90;;;;;;4974303;28;20391;-70
2021/09/26 00:26:42;;;;;;;5.37;4.63;;;17.90;99.90;;;;;;4992179;28;20200;-71
2021/09/26 00:29:09;;;;;;;4.57;4.13;;;17.90;99.90;;;;;;4993686;28;20785;-70
2021/09/26 00:31:34;;;;;;;4.17;3.83;;;17.90;99.90;;;;;;4993796;28;20172;-70
2021/09/26 00:34:00;;;;;;;4.63;3.50;;;17.90;99.90;;;;;;4993682;28;20423;-70
2021/09/26 00:36:26;;;;;;;5.10;4.13;;;17.90;99.90;;;;;;4993633;28;20176;-71
2021/09/26 00:38:51;;;;;;;4.80;4.37;;;18.00;99.90;;;;;;4993028;28;20273;-71
2021/09/26 00:41:17;;;;;;;4.87;4.47;;;18.00;99.90;;;;;;4976656;28;20640;-70
2021/09/26 00:43:43;;;;;;;4.90;4.40;;;18.10;99.90;;;;;;4975235;28;20181;-71
2021/09/26 00:46:09;;;;;;;4.00;3.70;;;18.20;99.90;;;;;;4993746;28;20464;-70
2021/09/26 00:48:35;;;;;;;4.13;3.83;;;18.20;99.90;;;;;;4993203;28;20201;-70
2021/09/26 00:51:01;;;;;;;4.53;4.23;;;18.20;99.90;;;;;;4977463;28;20497;-70
2021/09/26 00:53:26;;;;;;;6.13;4.23;;;18.20;99.90;;;;;;4974036;28;20922;-69
2021/09/26 00:55:57;;;;;;;4.60;4.20;;;18.10;99.90;;;;;;4991773;28;20184;-70
2021/09/26 00:58:25;;;;;;;5.27;4.70;;;18.00;99.90;;;;;;4996706;28;20540;-69
2021/09/26 01:00:50;;;;;;;8.97;6.70;;;17.90;99.90;;;;;;4997531;28;20397;-70
2021/09/26 01:03:16;;;;;;;5.23;4.70;;;17.80;99.90;;;;;;4995656;28;20756;-70
2021/09/26 01:05:44;;;;;;;4.90;4.50;;;17.70;99.90;;;;;;4997184;28;20604;-69
2021/09/26 01:08:54;;;;;;;4.33;3.93;;;17.60;99.90;;;;;;4996806;28;20206;-70
2021/09/26 01:11:53;;;;;;;5.40;4.83;;;17.50;99.90;;;;;;4916047;29;20803;-70
2021/09/26 01:14:27;;;;;;;6.70;4.47;;;17.50;99.90;;;;;;4948000;29;20404;-70
2021/09/26 01:16:59;;;;;;;5.47;4.80;;;17.40;99.90;;;;;;4988929;28;20404;-70
2021/09/26 01:19:50;;;;;;;5.63;5.17;;;17.40;99.90;;;;;;4989443;28;20450;-70
2021/09/26 01:22:21;;;;;;;7.07;5.63;;;17.40;99.90;;;;;;4996719;28;20527;-70
2021/09/26 01:25:36;;;;;;;5.13;4.63;;;17.40;99.90;;;;;;4995209;28;20405;-70
2021/09/26 01:28:23;;;;;;;5.57;5.07;;;17.30;99.90;;;;;;4983313;28;20417;-70
2021/09/26 01:30:56;;;;;;;5.07;4.60;;;17.30;99.90;;;;;;4990416;28;20419;-70
2021/09/26 01:33:29;;;;;;;5.87;4.70;;;17.30;99.90;;;;;;4977182;28;20397;-70
2021/09/26 01:36:14;;;;;;;6.43;4.80;;;17.30;99.90;;;;;;4977056;28;20374;-69
2021/09/26 01:38:53;;;;;;;4.63;4.10;;;17.30;99.90;;;;;;4976827;28;20387;-70
2021/09/26 01:41:42;;;;;;;5.00;4.50;;;17.30;99.90;;;;;;4986863;28;20471;-70
2021/09/26 01:44:15;;;;;;;4.93;4.47;;;17.30;99.90;;;;;;4984574;28;20403;-69
2021/09/26 01:46:45;;;;;;;5.30;4.63;;;17.30;99.90;;;;;;4976895;28;20497;-69
2021/09/26 01:49:17;;;;;;;4.30;3.67;;;17.30;99.90;;;;;;4977121;28;20406;-70
2021/09/26 01:51:45;;;;;;;7.53;5.27;;;17.30;99.90;;;;;;4976989;28;20427;-70
2021/09/26 01:54:13;;;;;;;5.13;4.70;;;17.20;99.90;;;;;;4976967;28;20417;-70
2021/09/26 01:56:43;;;;;;;4.10;3.53;;;17.10;99.90;;;;;;4957135;29;20420;-70
2021/09/26 01:59:12;;;;;;;5.00;4.60;;;17.10;99.90;;;;;;4957535;28;20787;-70
2021/09/26 02:01:39;;;;;;;4.60;4.20;;;17.10;99.90;;;;;;4988530;28;20394;-70
2021/09/26 02:04:06;;;;;;;5.00;4.47;;;17.00;99.90;;;;;;4977115;28;20422;-70
2021/09/26 02:06:36;;;;;;;4.73;4.23;;;17.00;99.90;;;;;;4975046;28;20843;-70
2021/09/26 02:09:03;;;;;;;4.30;3.90;;;16.90;99.90;;;;;;4981914;28;20441;-70
2021/09/26 02:11:30;;;;;;;4.53;4.13;;;16.90;99.90;;;;;;4990187;28;20426;-70
2021/09/26 02:13:55;;;;;;;4.40;4.00;;;16.80;99.90;;;;;;4976655;28;20411;-70
2021/09/26 02:16:22;;;;;;;5.40;4.90;;;16.80;99.90;;;;;;4992481;28;20491;-69
2021/09/26 02:18:49;;;;;;;5.40;5.00;;;16.80;99.90;;;;;;4995357;28;20199;-69
2021/09/26 02:21:15;;;;;;;4.63;4.23;;;16.80;99.90;;;;;;4995948;28;20906;-70
2021/09/26 02:23:41;;;;;;;5.60;4.27;;;16.80;99.90;;;;;;4966529;28;20510;-70
2021/09/26 02:26:08;;;;;;;5.10;4.60;;;16.70;99.90;;;;;;4976233;28;20532;-70
2021/09/26 02:28:34;;;;;;;4.87;4.37;;;16.70;99.90;;;;;;4975827;28;20420;-69
2021/09/26 02:31:06;;;;;;;5.03;4.60;;;16.70;99.90;;;;;;4991241;28;20773;-70
2021/09/26 02:33:34;;;;;;;6.00;4.37;;;16.70;99.90;;;;;;4968135;28;20423;-70
2021/09/26 02:36:00;;;;;;;4.03;3.73;;;16.60;99.90;;;;;;4976027;28;20469;-70
2021/09/26 02:38:26;;;;;;;5.03;4.53;;;16.60;99.90;;;;;;4990039;28;20481;-70
2021/09/26 02:40:58;;;;;;;5.13;4.00;;;16.50;99.90;;;;;;4978227;28;20446;-68
2021/09/26 02:43:37;;;;;;;5.67;4.43;;;16.50;99.90;;;;;;4976102;28;20184;-68
2021/09/26 02:46:10;;;;;;;5.13;4.27;;;16.50;99.90;;;;;;4993278;28;20471;-69
2021/09/26 02:48:36;;;;;;;4.47;4.07;;;16.40;99.90;;;;;;4994838;28;20811;-69
2021/09/26 02:51:03;;;;;;;4.87;4.47;;;16.40;99.90;;;;;;4995197;28;20875;-69
2021/09/26 02:53:30;;;;;;;5.23;4.80;;;16.40;99.90;;;;;;4995315;28;20476;-68
2021/09/26 02:55:57;;;;;;;5.13;4.63;;;16.30;99.90;;;;;;4981564;28;20437;-68
2021/09/26 02:58:23;;;;;;;5.60;5.10;;;16.40;99.90;;;;;;4975331;28;20412;-69
2021/09/26 03:00:50;;;;;;;5.67;5.10;;;16.30;99.90;;;;;;4993229;28;20409;-68
2021/09/26 03:03:25;;;;;;;4.83;4.33;;;16.30;99.90;;;;;;4994834;28;20901;-68
2021/09/26 03:05:52;;;;;;;4.93;4.53;;;16.40;99.90;;;;;;4985687;28;20437;-68
2021/09/26 03:08:18;;;;;;;6.70;4.60;;;16.40;99.90;;;;;;4964495;28;20455;-68
2021/09/26 03:10:47;;;;;;;5.20;4.80;;;16.30;99.90;;;;;;4980420;28;20914;-68
2021/09/26 03:13:13;;;;;;;4.10;3.73;;;16.30;99.90;;;;;;4994677;28;20441;-70
2021/09/26 03:15:39;;;;;;;4.20;3.57;;;16.30;99.90;;;;;;4976247;28;20485;-68
2021/09/26 03:18:05;;;;;;;5.30;4.77;;;16.30;99.90;;;;;;4974549;28;20496;-69
2021/09/26 03:20:31;;;;;;;7.80;5.67;;;16.30;99.90;;;;;;4974993;28;20506;-68
2021/09/26 03:22:57;;;;;;;7.60;5.30;;;16.30;99.90;;;;;;4975133;28;20180;-69
2021/09/26 03:25:23;;;;;;;7.13;5.40;;;16.30;99.90;;;;;;4975230;28;20408;-69
2021/09/26 03:27:48;;;;;;;5.10;4.70;;;16.30;99.90;;;;;;4974747;28;20398;-69
2021/09/26 03:30:15;;;;;;;4.50;4.10;;;16.30;99.90;;;;;;4974974;28;20945;-69
2021/09/26 03:32:41;;;;;;;6.23;4.47;;;16.30;99.90;;;;;;4974845;28;20249;-69
2021/09/26 03:35:09;;;;;;;6.00;5.47;;;16.30;99.90;;;;;;4988074;28;20438;-69
2021/09/26 03:37:34;;;;;;;5.10;4.60;;;16.20;99.90;;;;;;4974391;28;20761;-69
2021/09/26 03:40:02;;;;;;;4.80;4.40;;;16.30;99.90;;;;;;4974720;28;20620;-70
2021/09/26 03:42:28;;;;;;;5.60;5.10;;;16.20;99.90;;;;;;4974600;28;20738;-69
2021/09/26 03:44:53;;;;;;;5.83;4.60;;;16.20;99.90;;;;;;4990713;28;20521;-70
2021/09/26 03:47:19;;;;;;;5.60;5.13;;;16.10;99.90;;;;;;4994000;28;20215;-69
2021/09/26 03:49:44;;;;;;;4.63;4.33;;;16.20;99.90;;;;;;4993640;28;20199;-68
2021/09/26 03:52:10;;;;;;;6.00;5.00;;;16.10;99.90;;;;;;4994394;28;20587;-69
2021/09/26 03:54:36;;;;;;;4.23;3.87;;;16.10;99.90;;;;;;4994333;28;20658;-69
2021/09/26 03:57:02;;;;;;;5.17;4.67;;;16.10;99.90;;;;;;4993869;28;20574;-69
2021/09/26 03:59:27;;;;;;;4.67;4.20;;;16.10;99.90;;;;;;4979004;28;20234;-69
2021/09/26 04:01:53;;;;;;;5.07;4.57;;;16.00;99.90;;;;;;4979122;28;20191;-70
2021/09/26 04:04:19;;;;;;;4.00;3.67;;;16.10;99.90;;;;;;4981161;28;20184;-70
2021/09/26 04:06:45;;;;;;;4.07;3.70;;;16.10;99.90;;;;;;4974197;28;20305;-70
2021/09/26 04:09:11;;;;;;;5.23;4.73;;;16.00;99.90;;;;;;4974475;28;20195;-70
2021/09/26 04:11:37;;;;;;;4.57;4.17;;;16.00;99.90;;;;;;4974633;28;20587;-69
2021/09/26 04:14:03;;;;;;;5.90;5.40;;;16.00;99.90;;;;;;4975501;28;20405;-70
2021/09/26 04:16:30;;;;;;;5.37;4.87;;;16.00;99.90;;;;;;4973930;28;20916;-70
2021/09/26 04:18:55;;;;;;;4.80;4.40;;;16.00;99.90;;;;;;4974062;28;20992;-69
2021/09/26 04:21:22;;;;;;;4.70;4.30;;;16.00;99.90;;;;;;4974239;28;20411;-70
2021/09/26 04:23:47;;;;;;;5.17;4.77;;;15.90;99.90;;;;;;4974371;28;20412;-69
2021/09/26 04:26:14;;;;;;;5.37;4.13;;;15.90;99.90;;;;;;4973920;28;20469;-70
2021/09/26 04:28:40;;;;;;;5.73;4.97;;;15.90;99.90;;;;;;4981943;28;20198;-69
2021/09/26 04:31:05;;;;;;;5.20;4.80;;;15.90;99.90;;;;;;4986309;28;20427;-69
2021/09/26 04:33:31;;;;;;;5.07;4.70;;;15.90;99.90;;;;;;4978390;28;20172;-69
2021/09/26 04:35:57;;;;;;;4.70;4.40;;;15.80;99.90;;;;;;4978322;28;20400;-69
2021/09/26 04:38:23;;;;;;;4.70;3.83;;;15.70;99.90;;;;;;4977864;28;20183;-70
2021/09/26 04:40:48;;;;;;;5.90;4.20;;;15.60;99.90;;;;;;4978274;28;20172;-69
2021/09/26 04:43:14;;;;;;;5.50;5.10;;;15.60;99.90;;;;;;4986574;28;20186;-69
2021/09/26 04:45:40;;;;;;;4.57;4.17;;;15.60;99.90;;;;;;4997431;28;20253;-70
2021/09/26 04:48:06;;;;;;;4.70;4.27;;;15.60;99.90;;;;;;4996822;28;20434;-70
2021/09/26 04:50:32;;;;;;;5.67;4.97;;;15.60;99.90;;;;;;4997538;28;20845;-70
2021/09/26 04:52:58;;;;;;;4.10;3.80;;;15.60;99.90;;;;;;4986247;28;20426;-69
2021/09/26 04:55:26;;;;;;;4.77;4.37;;;15.60;99.90;;;;;;4994425;28;20808;-69
2021/09/26 04:57:53;;;;;;;5.23;4.77;;;15.60;99.90;;;;;;4978545;28;20539;-69
2021/09/26 05:00:19;;;;;;;4.40;4.00;;;15.50;99.90;;;;;;4977075;28;20430;-69
2021/09/26 05:02:45;;;;;;;5.23;4.73;;;15.50;99.90;;;;;;4982267;28;20437;-70
2021/09/26 05:05:10;;;;;;;4.57;4.10;;;15.50;99.90;;;;;;4977804;28;20936;-70
2021/09/26 05:07:36;;;;;;;5.47;4.50;;;15.50;99.90;;;;;;4977547;28;20207;-69
2021/09/26 05:10:03;;;;;;;5.07;4.57;;;15.50;99.90;;;;;;4980314;28;20576;-70
2021/09/26 05:12:29;;;;;;;8.53;6.00;;;15.40;99.90;;;;;;4983593;28;20186;-70
2021/09/26 05:15:01;;;;;;;4.37;3.70;;;15.40;99.90;;;;;;4995976;28;20793;-70
2021/09/26 05:17:26;;;;;;;4.93;4.43;;;15.40;99.90;;;;;;4958074;29;20398;-69
2021/09/26 05:19:52;;;;;;;5.00;4.50;;;15.40;99.90;;;;;;4958146;28;20435;-69
2021/09/26 05:22:18;;;;;;;5.13;4.63;;;15.30;99.90;;;;;;4958192;29;20403;-69
2021/09/26 05:24:43;;;;;;;6.37;4.60;;;15.30;99.90;;;;;;4958143;29;20177;-68
2021/09/26 05:27:09;;;;;;;4.03;3.70;;;15.30;99.90;;;;;;4968102;28;20219;-68
2021/09/26 05:29:35;;;;;;;4.90;4.50;;;15.30;99.90;;;;;;4977129;28;20580;-69
2021/09/26 05:32:01;;;;;;;5.97;5.37;;;15.20;99.90;;;;;;4977232;28;20183;-68
2021/09/26 05:34:29;;;;;;;5.83;5.23;;;15.10;99.90;;;;;;4977139;28;20176;-68
2021/09/26 05:36:55;;;;;;;5.57;5.07;;;15.10;99.90;;;;;;4976735;28;20854;-70
2021/09/26 05:39:21;;;;;;;5.53;5.10;;;15.10;99.90;;;;;;4977035;28;20402;-69
2021/09/26 05:41:47;;;;;;;5.57;5.03;;;15.20;99.90;;;;;;4976485;28;20481;-69
2021/09/26 05:44:13;;;;;;;5.63;5.13;;;15.20;99.90;;;;;;4960053;28;20452;-69
2021/09/26 05:46:38;;;;;;;5.30;4.83;;;15.20;99.90;;;;;;4976421;28;20697;-68
2021/09/26 05:49:04;;;;;;;6.33;5.40;;;15.20;99.90;;;;;;4975711;28;20210;-69
2021/09/26 05:51:29;;;;;;;5.90;5.30;;;15.30;99.90;;;;;;4977078;28;20183;-70
2021/09/26 05:53:55;;;;;;;5.57;5.07;;;15.30;99.90;;;;;;4976320;28;20186;-70
2021/09/26 05:56:21;;;;;;;6.13;5.53;;;15.30;99.90;;;;;;4970225;28;20176;-69
2021/09/26 05:58:46;;;;;;;5.83;5.30;;;15.40;99.90;;;;;;4976302;28;20215;-68
2021/09/26 06:01:12;;;;;;;5.00;4.50;;;15.50;99.90;;;;;;4971451;28;20195;-73
2021/09/26 06:03:39;;;;;;;6.40;5.80;;;15.60;99.90;;;;;;4970315;28;20180;-67
2021/09/26 06:06:04;;;;;;;5.87;5.27;;;15.70;99.90;;;;;;4976765;28;20588;-68
2021/09/26 06:08:30;;;;;;;5.17;4.70;;;15.90;99.90;;;;;;4975268;28;20423;-67
2021/09/26 06:10:56;;;;;;;7.10;4.73;;;16.00;99.90;;;;;;4975995;28;20742;-67
2021/09/26 06:13:21;;;;;;;6.43;5.30;;;16.20;99.90;;;;;;4975798;28;20177;-71
2021/09/26 06:15:47;;;;;;;6.50;5.57;;;16.50;99.90;;;;;;4968637;28;20192;-68
2021/09/26 06:18:13;;;;;;;7.77;5.90;;;16.70;99.90;;;;;;4975172;28;20539;-67
2021/09/26 06:20:39;;;;;;;4.83;4.43;;;16.80;99.90;;;;;;4983524;28;20447;-70
2021/09/26 06:23:04;;;;;;;4.43;4.03;;;16.90;99.90;;;;;;4991332;28;20193;-66
2021/09/26 06:25:30;;;;;;;4.83;4.33;;;17.00;99.90;;;;;;4975938;28;20185;-67
2021/09/26 06:27:56;;;;;;;6.30;5.43;;;17.10;99.90;;;;;;4975297;28;20187;-68
2021/09/26 06:30:22;;;;;;;4.30;3.90;;;17.20;99.90;;;;;;4976245;28;20656;-68
2021/09/26 06:32:48;;;;;;;4.90;4.50;;;17.50;99.90;;;;;;4976111;28;20403;-68
2021/09/26 06:35:13;;;;;;;4.10;3.70;;;17.70;99.90;;;;;;4976280;28;20846;-67
2021/09/26 06:37:39;;;;;;;4.57;4.17;;;17.80;99.90;;;;;;4974385;28;20191;-68
2021/09/26 06:40:06;;;;;;;5.10;4.60;;;17.80;99.90;;;;;;4977907;28;20201;-68
2021/09/26 06:42:33;;;;;;;4.40;4.10;;;17.80;99.90;;;;;;4971700;28;20209;-67
2021/09/26 06:44:59;;;;;;;4.67;4.27;;;17.80;99.90;;;;;;4975969;28;20561;-68
2021/09/26 06:47:25;;;;;;;5.23;4.43;;;17.90;99.90;;;;;;4975078;28;20469;-67
2021/09/26 06:49:51;;;;;;;4.70;4.30;;;17.90;99.90;;;;;;4972370;28;20452;-68
2021/09/26 06:52:17;;;;;;;4.33;3.80;;;18.10;99.90;;;;;;4966298;28;20188;-66
2021/09/26 06:54:43;;;;;;;4.47;4.03;;;18.30;99.90;;;;;;4974330;28;20445;-68
2021/09/26 06:57:10;;;;;;;3.67;3.37;;;18.50;99.90;;;;;;4975730;28;20186;-67
2021/09/26 06:59:36;;;;;;;4.50;4.10;;;18.60;99.90;;;;;;4985963;28;20457;-67
2021/09/26 07:02:02;;;;;;;3.67;3.20;;;18.90;99.90;;;;;;4975717;28;20477;-72
2021/09/26 07:04:28;;;;;;;4.27;3.93;;;19.30;99.90;;;;;;4975306;28;20511;-68
2021/09/26 07:06:54;;;;;;;5.00;4.00;;;19.70;99.90;;;;;;4974468;28;20467;-70
2021/09/26 07:09:20;;;;;;;3.70;3.40;;;20.20;99.90;;;;;;4975353;28;20196;-69
2021/09/26 07:11:45;;;;;;;6.43;5.43;;;20.80;99.90;;;;;;4975350;28;20429;-66
2021/09/26 07:14:11;;;;;;;3.97;3.67;;;21.30;99.90;;;;;;4974849;28;20180;-67
2021/09/26 07:16:37;;;;;;;4.93;4.43;;;21.80;99.90;;;;;;4973711;28;20191;-66
2021/09/26 07:19:03;;;;;;;6.53;5.93;;;22.30;99.90;;;;;;4974615;28;20439;-66
2021/09/26 07:21:29;;;;;;;12.73;7.33;;;22.60;99.90;;;;;;4974138;28;20429;-66
2021/09/26 07:23:54;;;;;;;6.23;5.63;;;22.80;99.90;;;;;;4955811;29;20182;-67
2021/09/26 07:26:20;;;;;;;11.00;4.50;;;22.80;99.90;;;;;;4974409;28;20258;-67
2021/09/26 07:28:46;;;;;;;4.27;3.60;;;22.90;99.90;;;;;;4971468;28;20232;-66
2021/09/26 07:31:13;;;;;;;3.73;3.40;;;23.10;99.90;;;;;;4973937;28;20470;-67
2021/09/26 07:33:39;;;;;;;4.03;3.70;;;23.40;99.90;;;;;;4975270;28;20180;-66
2021/09/26 07:36:05;;;;;;;4.20;3.77;;;23.80;99.90;;;;;;4984014;28;20486;-66
2021/09/26 07:38:30;;;;;;;3.80;3.40;;;24.40;99.90;;;;;;4993301;28;20195;-66
2021/09/26 07:40:56;;;;;;;4.00;3.23;;;24.70;99.90;;;;;;4986053;28;20441;-67
2021/09/26 07:43:22;;;;;;;4.83;3.97;;;25.10;99.90;;;;;;4975014;28;20240;-65
2021/09/26 07:45:48;;;;;;;4.20;3.80;;;25.50;99.90;;;;;;4974834;28;20524;-65
2021/09/26 07:48:13;;;;;;;4.00;3.70;;;25.80;99.90;;;;;;4974420;28;20201;-66
2021/09/26 07:50:39;;;;;;;4.03;3.73;;;26.00;99.90;;;;;;4974969;28;20207;-67
2021/09/26 07:53:05;;;;;;;4.23;3.83;;;26.10;99.90;;;;;;4974493;28;20183;-66
2021/09/26 07:55:30;;;;;;;4.83;3.60;;;26.10;99.90;;;;;;4974877;28;20243;-67
2021/09/26 07:57:56;;;;;;;4.30;3.90;;;26.00;99.60;;;;;;4970073;28;20646;-66
2021/09/26 08:00:22;;;;;;;4.13;3.37;;;25.70;99.70;;;;;;4993796;28;20199;-67
2021/09/26 08:02:50;;;;;;;4.43;4.03;;;25.30;99.90;;;;;;4994172;28;20523;-67
2021/09/26 08:05:15;;;;;;;3.60;3.30;;;24.80;99.90;;;;;;4994137;28;20678;-67
2021/09/26 08:07:42;;;;;;;3.60;3.30;;;24.40;99.90;;;;;;4993581;28;20491;-67
2021/09/26 08:10:09;;;;;;;4.70;4.30;;;24.00;99.90;;;;;;4988040;28;20200;-67
2021/09/26 08:12:35;;;;;;;4.20;3.80;;;23.70;99.90;;;;;;4974964;28;20427;-67
2021/09/26 08:15:01;;;;;;;5.63;3.97;;;23.50;99.90;;;;;;4974624;28;20440;-65
2021/09/26 08:17:27;;;;;;;5.00;4.60;;;23.20;99.90;;;;;;4974235;28;20898;-67
2021/09/26 08:19:53;;;;;;;4.73;3.63;;;23.00;99.90;;;;;;4974256;28;20409;-68
2021/09/26 08:22:19;;;;;;;4.00;3.70;;;22.70;99.90;;;;;;4957366;28;20183;-68
2021/09/26 08:24:44;;;;;;;4.20;3.80;;;22.40;99.90;;;;;;4978941;28;20683;-67
2021/09/26 08:27:10;;;;;;;4.97;4.07;;;22.40;99.90;;;;;;4993094;28;20211;-67
2021/09/26 08:29:36;;;;;;;6.53;3.87;;;22.40;99.90;;;;;;4993656;28;20405;-66
2021/09/26 08:32:05;;;;;;;4.50;3.93;;;22.60;99.90;;;;;;4993773;28;20895;-66
2021/09/26 08:34:31;;;;;;;4.03;3.60;;;23.10;99.90;;;;;;4993685;28;20395;-66
2021/09/26 08:36:57;;;;;;;4.20;3.80;;;23.80;99.90;;;;;;4993451;28;20414;-66
2021/09/26 08:39:23;;;;;;;4.70;3.50;;;24.60;99.90;;;;;;4989388;28;21034;-66
2021/09/26 08:41:53;;;;;;;3.63;3.33;;;25.20;99.90;;;;;;4973371;28;20514;-67
2021/09/26 08:44:24;;;;;;;4.00;3.53;;;25.70;99.90;;;;;;4974213;28;20244;-66
2021/09/26 08:46:51;;;;;;;4.30;3.77;;;25.90;99.90;;;;;;4973783;28;20525;-68
2021/09/26 08:49:17;;;;;;;5.13;4.63;;;25.80;99.90;;;;;;4973879;28;20906;-67
2021/09/26 08:51:50;;;;;;;4.73;4.17;;;25.50;99.90;;;;;;4973858;28;20433;-70
2021/09/26 08:54:17;;;;;;;6.80;4.60;;;25.20;99.90;;;;;;4955680;28;20184;-67
2021/09/26 08:56:43;;;;;;;4.37;4.03;;;25.00;99.90;;;;;;4992998;28;20427;-68
2021/09/26 08:59:10;;;;;;;6.17;5.67;;;24.80;99.90;;;;;;4984691;28;20945;-66
2021/09/26 09:01:36;;;;;;;6.40;4.60;;;24.60;99.90;;;;;;4974052;28;20419;-68
2021/09/26 09:04:03;;;;;;;4.63;4.03;;;24.40;99.90;;;;;;4974229;28;20415;-66
2021/09/26 09:06:46;;;;;;;3.60;3.30;;;24.20;99.90;;;;;;4973871;28;20459;-68
2021/09/26 09:09:19;;;;;;;5.07;3.37;;;24.00;99.90;;;;;;4973231;28;20805;-67
2021/09/26 09:12:03;;;;;;;3.93;3.33;;;23.80;99.90;;;;;;4973810;28;20386;-67
2021/09/26 09:14:52;;;;;;;7.13;4.33;;;23.80;99.90;;;;;;4973296;28;20816;-64
2021/09/26 09:17:36;;;;;;;4.53;4.13;;;23.60;99.90;;;;;;4975232;28;20430;-66
2021/09/26 09:20:23;;;;;;;4.87;4.33;;;23.50;99.90;;;;;;4963463;28;20461;-67
2021/09/26 09:23:07;;;;;;;7.30;4.50;;;23.30;99.90;;;;;;4975280;28;20476;-66
2021/09/26 09:25:45;;;;;;;4.10;3.80;;;23.30;99.90;;;;;;4959106;28;20432;-67
2021/09/26 09:28:22;;;;;;;4.67;4.37;;;23.10;99.90;;;;;;4976406;28;20733;-68
2021/09/26 09:30:53;;;;;;;4.80;4.10;;;22.90;99.90;;;;;;4977238;28;20426;-67
2021/09/26 09:33:21;;;;;;;6.13;4.80;;;22.80;99.90;;;;;;4977405;28;20410;-66
2021/09/26 09:35:52;;;;;;;4.97;3.80;;;22.60;99.90;;;;;;4976998;28;20410;-67
2021/09/26 09:38:27;;;;;;;3.80;3.50;;;22.50;99.90;;;;;;4976884;28;20800;-68
2021/09/26 09:40:53;;;;;;;5.33;4.87;;;22.40;99.90;;;;;;4976767;28;20440;-67
2021/09/26 09:43:20;;;;;;;4.77;4.13;;;22.40;99.90;;;;;;4977105;28;20427;-67
2021/09/26 09:45:54;;;;;;;4.37;3.93;;;22.40;99.90;;;;;;4987391;28;20686;-68
2021/09/26 09:48:39;;;;;;;4.50;3.90;;;22.40;99.90;;;;;;4995488;28;20415;-67
2021/09/26 09:51:18;;;;;;;3.03;2.83;;;22.50;99.90;;;;;;4977619;28;20467;-66
2021/09/26 09:53:47;;;;;;;4.00;3.70;;;22.60;99.90;;;;;;4959905;28;20407;-67
2021/09/26 09:56:26;;;;;;;3.90;3.50;;;22.70;99.90;;;;;;4958592;28;20392;-72
2021/09/26 09:58:58;;;;;;;4.60;4.13;;;22.80;99.90;;;;;;4970419;28;20428;-67
2021/09/26 10:01:36;;;;;;;7.13;3.90;;;22.80;99.90;;;;;;4984763;28;20411;-67
2021/09/26 10:04:06;;;;;;;3.33;3.03;;;22.80;99.90;;;;;;4976629;28;20416;-69
2021/09/26 10:06:40;;;;;;;4.27;3.87;;;22.70;99.90;;;;;;4975979;28;20791;-67
2021/09/26 10:09:19;;;;;;;4.97;4.17;;;22.70;99.90;;;;;;4975655;28;20426;-67
2021/09/26 10:11:50;;;;;;;4.77;4.07;;;22.80;99.90;;;;;;4982832;28;20528;-66
2021/09/26 10:14:17;;;;;;;5.13;4.50;;;22.70;99.90;;;;;;4975880;28;20427;-70
2021/09/26 10:16:43;;;;;;;7.07;4.50;;;22.70;99.90;;;;;;4974374;28;20424;-67
2021/09/26 10:19:09;;;;;;;4.37;3.97;;;22.70;99.90;;;;;;4975737;28;20455;-66
2021/09/26 10:21:36;;;;;;;4.90;4.43;;;22.70;99.90;;;;;;4975563;28;20513;-66
2021/09/26 10:24:02;;;;;;;4.10;3.73;;;22.60;99.90;;;;;;4975793;28;20889;-67
2021/09/26 10:26:29;;;;;;;4.73;4.33;;;22.60;99.90;;;;;;4976513;28;20491;-67
2021/09/26 10:28:56;;;;;;;4.67;4.07;;;22.50;99.90;;;;;;4974301;28;20512;-67
2021/09/26 10:31:25;;;;;;;5.03;4.37;;;22.50;99.90;;;;;;4975934;28;20394;-71
2021/09/26 10:33:51;;;;;;;5.07;4.00;;;22.30;99.90;;;;;;4975762;28;20420;-68
2021/09/26 10:36:22;;;;;;;5.47;4.30;;;22.10;99.90;;;;;;4976016;28;20387;-68
2021/09/26 10:38:50;;;;;;;6.70;5.50;;;22.10;99.90;;;;;;4975213;28;20524;-70
2021/09/26 10:41:16;;;;;;;4.60;4.13;;;22.00;99.90;;;;;;4975886;28;20421;-69
2021/09/26 10:43:43;;;;;;;8.10;6.00;;;21.80;99.90;;;;;;4956769;28;20440;-67
2021/09/26 10:46:16;;;;;;;4.70;4.23;;;21.70;99.90;;;;;;4974912;28;20462;-69
2021/09/26 10:49:11;;;;;;;4.57;4.10;;;21.70;99.90;;;;;;4974759;28;20425;-69
2021/09/26 10:51:46;;;;;;;10.37;6.17;;;21.60;99.90;;;;;;4957366;28;20422;-71
2021/09/26 10:54:32;;;;;;;7.30;4.80;;;21.50;99.90;;;;;;4975604;28;20398;-69
2021/09/26 10:57:04;;;;;;;4.50;4.10;;;21.40;99.90;;;;;;4974295;28;20415;-68
2021/09/26 10:59:39;;;;;;;5.43;4.33;;;21.40;99.90;;;;;;4975285;28;20954;-68
2021/09/26 11:02:23;;;;;;;5.20;4.70;;;21.40;99.90;;;;;;4974342;28;20398;-70
2021/09/26 11:04:54;;;;;;;5.93;4.10;;;21.60;99.90;;;;;;4974547;28;20420;-69
2021/09/26 11:07:25;;;;;;;5.63;5.00;;;21.60;99.90;;;;;;4975079;28;20970;-69
2021/09/26 11:09:55;;;;;;;5.80;4.30;;;21.90;99.90;;;;;;4982699;28;20454;-68
2021/09/26 11:12:43;;;;;;;4.37;3.97;;;22.00;99.90;;;;;;4961111;28;20428;-69
2021/09/26 11:15:09;;;;;;;5.17;3.97;;;22.10;99.90;;;;;;4976195;28;20495;-71
2021/09/26 11:17:49;;;;;;;5.43;4.97;;;22.20;99.90;;;;;;4958511;28;20463;-72
2021/09/26 11:20:33;;;;;;;5.73;4.37;;;22.20;99.90;;;;;;4975358;28;20855;-69
2021/09/26 11:23:13;;;;;;;4.47;4.07;;;22.20;99.90;;;;;;4957669;28;20800;-75
2021/09/26 11:25:57;;;;;;;5.50;3.97;;;22.10;99.90;;;;;;4989826;28;20439;-75
2021/09/26 11:28:25;;;;;;;5.70;3.93;;;22.10;99.90;;;;;;4994061;28;20378;-71
2021/09/26 11:30:51;;;;;;;4.03;3.70;;;22.00;99.90;;;;;;4994709;28;20403;-74
2021/09/26 11:33:20;;;;;;;4.20;3.80;;;21.80;99.90;;;;;;4993320;28;20425;-77
2021/09/26 11:35:48;;;;;;;3.73;3.43;;;21.70;99.90;;;;;;4958318;28;20296;-71
2021/09/26 11:38:34;;;;;;;4.10;3.40;;;21.60;99.90;;;;;;4957210;28;20393;-73
2021/09/26 11:41:03;;;;;;;4.17;3.77;;;21.40;99.90;;;;;;4969369;28;20401;-72
2021/09/26 11:43:34;;;;;;;4.37;3.97;;;21.30;99.90;;;;;;4982615;28;20444;-73
2021/09/26 11:46:16;;;;;;;4.73;3.90;;;21.20;99.90;;;;;;4975275;28;20482;-72
2021/09/26 11:48:50;;;;;;;3.73;3.40;;;21.20;99.90;;;;;;4974643;28;20426;-71
2021/09/26 11:51:20;;;;;;;4.30;3.73;;;21.00;99.90;;;;;;4957438;28;20863;-69
2021/09/26 11:54:09;;;;;;;5.93;4.60;;;20.90;99.90;;;;;;4957629;28;20423;-71
2021/09/26 11:56:37;;;;;;;6.53;4.40;;;20.70;99.90;;;;;;4957736;28;20510;-70
2021/09/26 11:59:15;;;;;;;6.57;5.30;;;20.60;99.90;;;;;;4957990;28;20459;-70
2021/09/26 12:01:54;;;;;;;6.40;5.37;;;20.60;99.90;;;;;;4969901;28;20453;-74
2021/09/26 12:04:35;;;;;;;5.27;4.73;;;20.50;99.90;;;;;;4974111;28;20491;-73
2021/09/26 12:07:10;;;;;;;5.17;4.67;;;20.40;99.90;;;;;;4953395;28;20479;-76
2021/09/26 12:09:49;;;;;;;5.50;4.00;;;20.30;99.90;;;;;;4953862;28;20457;-73
2021/09/26 12:12:27;;;;;;;5.30;4.10;;;20.30;99.90;;;;;;4973960;28;20766;-72
2021/09/26 12:15:05;;;;;;;7.53;4.27;;;20.30;99.90;;;;;;4961398;28;20405;-72
2021/09/26 12:17:32;;;;;;;5.33;4.43;;;20.30;99.90;;;;;;4993802;28;20387;-70
2021/09/26 12:20:04;;;;;;;4.60;4.00;;;20.30;99.90;;;;;;4993864;28;20394;-72
2021/09/26 12:22:30;;;;;;;5.80;4.57;;;20.40;99.90;;;;;;4993903;28;20469;-74
2021/09/26 12:24:58;;;;;;;6.63;5.07;;;20.40;99.90;;;;;;4976927;28;20428;-72
2021/09/26 12:27:29;;;;;;;5.33;4.80;;;20.50;99.90;;;;;;4974564;28;20463;-72
2021/09/26 12:30:10;;;;;;;4.97;3.73;;;20.60;99.90;;;;;;4958230;28;20779;-72
2021/09/26 12:32:43;;;;;;;4.20;3.80;;;20.90;99.90;;;;;;4986599;28;20419;-71
2021/09/26 12:35:24;;;;;;;8.27;4.47;;;21.00;99.90;;;;;;4994027;28;20369;-72
2021/09/26 12:37:53;;;;;;;4.13;3.50;;;21.30;99.90;;;;;;4993104;28;20419;-73
2021/09/26 12:40:25;;;;;;;6.67;4.27;;;21.60;99.90;;;;;;4993789;28;20401;-73
2021/09/26 12:42:54;;;;;;;5.00;4.03;;;21.90;99.90;;;;;;4985672;28;20412;-75
2021/09/26 12:45:31;;;;;;;5.77;3.97;;;22.30;99.90;;;;;;4966168;28;20429;-75
2021/09/26 12:47:58;;;;;;;4.47;4.07;;;22.60;99.90;;;;;;4980801;28;20424;-75
2021/09/26 12:50:25;;;;;;;4.23;3.83;;;22.90;99.90;;;;;;4993296;28;20981;-75
2021/09/26 12:52:56;;;;;;;4.00;3.70;;;23.10;99.90;;;;;;4961081;28;20787;-77
2021/09/26 12:55:26;;;;;;;3.97;3.57;;;23.30;99.90;;;;;;4977719;28;20423;-76
2021/09/26 12:57:53;;;;;;;4.37;3.53;;;23.40;99.90;;;;;;4977536;28;20718;-78